Time;durP1;ratioP1;P1;durP2;ratioP2;P2;SDS_P1;SDS_P2;PMS_P1;PMS_P2;Temp;Humidity;BMP_temperature;BMP_pressure;BME280_temperature;BME280_humidity;BME280_pressure;Samples;Min_cycle;Max_cycle;Signal;HPM_P1;HPM_P2
2022/08/01 00:01:42;;;;;;;0.30;0.30;;;18.90;99.90;;;;;;4949825;28;20124;-84
2022/08/01 00:04:08;;;;;;;0.30;0.30;;;18.90;99.90;;;;;;4929053;28;20127;-84
2022/08/01 00:06:33;;;;;;;0.30;0.30;;;18.90;99.90;;;;;;4952301;28;20505;-85
2022/08/01 00:09:00;;;;;;;0.30;0.30;;;18.80;99.90;;;;;;4955149;28;20080;-84
2022/08/01 00:11:26;;;;;;;0.30;0.30;;;18.80;99.90;;;;;;4919268;28;20372;-85
2022/08/01 00:13:52;;;;;;;0.30;0.30;;;18.80;99.90;;;;;;4933496;28;20054;-84
2022/08/01 00:16:18;;;;;;;0.30;0.30;;;18.70;99.90;;;;;;4932689;28;20058;-84
2022/08/01 00:18:44;;;;;;;0.30;0.30;;;18.80;99.90;;;;;;4934969;28;20052;-84
2022/08/01 00:21:10;;;;;;;0.30;0.30;;;18.70;99.90;;;;;;4931243;28;20049;-85
2022/08/01 00:23:36;;;;;;;0.30;0.30;;;18.90;99.90;;;;;;4941494;28;20046;-84
2022/08/01 00:26:02;;;;;;;0.30;0.30;;;18.90;99.90;;;;;;4929630;28;20687;-83
2022/08/01 00:28:28;;;;;;;0.30;0.30;;;18.80;99.90;;;;;;4925218;28;20089;-83
2022/08/01 00:30:53;;;;;;;0.30;0.30;;;18.90;99.90;;;;;;4930349;28;20138;-83
2022/08/01 00:33:19;;;;;;;0.30;0.30;;;18.80;99.90;;;;;;4913458;28;20066;-83
2022/08/01 00:35:45;;;;;;;0.30;0.30;;;18.80;99.90;;;;;;4934482;28;20050;-83
2022/08/01 00:38:11;;;;;;;0.30;0.30;;;18.80;99.90;;;;;;4938423;28;20139;-83
2022/08/01 00:40:37;;;;;;;0.30;0.30;;;18.70;99.90;;;;;;4944039;28;20072;-83
2022/08/01 00:43:03;;;;;;;0.30;0.30;;;18.80;99.90;;;;;;4948352;28;20057;-84
2022/08/01 00:45:29;;;;;;;0.30;0.30;;;18.80;99.90;;;;;;4927110;28;20319;-84
2022/08/01 00:47:54;;;;;;;0.30;0.30;;;18.80;99.90;;;;;;4932670;28;20836;-83
2022/08/01 00:50:21;;;;;;;0.30;0.30;;;18.90;99.90;;;;;;4932241;28;20803;-84
2022/08/01 00:52:48;;;;;;;0.30;0.30;;;18.80;99.90;;;;;;4939985;28;20053;-84
2022/08/01 00:55:16;;;;;;;0.30;0.30;;;18.90;99.90;;;;;;4928277;28;20054;-85
2022/08/01 00:57:42;;;;;;;0.30;0.30;;;18.80;99.90;;;;;;4933470;28;20053;-85
2022/08/01 01:00:09;;;;;;;0.30;0.30;;;18.90;99.90;;;;;;4942337;28;20122;-84
2022/08/01 01:02:37;;;;;;;0.30;0.30;;;18.70;99.90;;;;;;4932437;28;20096;-85
2022/08/01 01:05:03;;;;;;;0.30;0.30;;;18.80;99.90;;;;;;4907854;28;20056;-85
2022/08/01 01:07:48;;;;;;;0.30;0.30;;;18.90;99.90;;;;;;4929438;28;20084;-83
2022/08/01 01:10:27;;;;;;;0.38;0.38;;;18.90;99.90;;;;;;4947470;28;20058;-84
2022/08/01 01:13:26;;;;;;;0.30;0.30;;;18.70;99.90;;;;;;4919753;28;20148;-85
2022/08/01 01:16:01;;;;;;;0.30;0.30;;;18.90;99.90;;;;;;4929610;28;20761;-85
2022/08/01 01:18:35;;;;;;;0.30;0.30;;;18.70;99.90;;;;;;4933949;28;20053;-84
2022/08/01 01:21:16;;;;;;;0.30;0.30;;;18.80;99.90;;;;;;4932949;28;20303;-84
2022/08/01 01:24:23;;;;;;;0.30;0.30;;;18.80;99.90;;;;;;4918654;28;20884;-84
2022/08/01 01:27:13;;;;;;;0.30;0.30;;;18.70;99.90;;;;;;4929442;28;20054;-84
2022/08/01 01:29:42;;;;;;;0.30;0.30;;;18.80;99.90;;;;;;4947042;28;20046;-84
2022/08/01 01:32:21;;;;;;;0.30;0.30;;;18.80;99.90;;;;;;4935315;28;20052;-84
2022/08/01 01:34:50;;;;;;;0.30;0.30;;;18.70;99.90;;;;;;4949895;28;20898;-84
2022/08/01 01:37:19;;;;;;;0.35;0.35;;;18.80;99.90;;;;;;4930161;28;20415;-84
2022/08/01 01:39:48;;;;;;;0.30;0.30;;;18.60;99.90;;;;;;4918738;28;20046;-85
2022/08/01 01:42:16;;;;;;;0.30;0.30;;;18.80;99.90;;;;;;4933381;28;20050;-85
2022/08/01 01:44:44;;;;;;;0.30;0.30;;;18.60;99.90;;;;;;4933961;28;20042;-85
2022/08/01 01:47:13;;;;;;;0.30;0.30;;;18.60;99.90;;;;;;4944903;28;20049;-85
2022/08/01 01:49:41;;;;;;;0.30;0.30;;;18.60;99.90;;;;;;4944369;28;20065;-85
2022/08/01 01:52:08;;;;;;;0.30;0.30;;;18.70;99.90;;;;;;4927567;28;20050;-85
2022/08/01 01:54:37;;;;;;;0.30;0.30;;;18.80;99.90;;;;;;4930632;28;20056;-86
2022/08/01 01:57:05;;;;;;;0.30;0.30;;;18.80;99.90;;;;;;4932553;28;20057;-86
2022/08/01 01:59:34;;;;;;;0.30;0.30;;;18.70;99.90;;;;;;4930725;28;20053;-85
2022/08/01 02:02:03;;;;;;;0.30;0.30;;;18.70;99.90;;;;;;4933672;28;20050;-85
2022/08/01 02:04:30;;;;;;;0.30;0.30;;;18.60;99.90;;;;;;4915315;28;20050;-85
2022/08/01 02:06:57;;;;;;;0.30;0.30;;;18.80;99.90;;;;;;4913942;28;20041;-85
2022/08/01 02:09:26;;;;;;;0.32;0.32;;;18.80;99.90;;;;;;4930303;28;20038;-84
2022/08/01 02:11:54;;;;;;;0.30;0.30;;;18.70;99.90;;;;;;4931352;28;20084;-84
2022/08/01 02:14:22;;;;;;;0.30;0.30;;;18.70;99.90;;;;;;4933343;28;20125;-85
2022/08/01 02:16:50;;;;;;;0.30;0.30;;;18.80;99.90;;;;;;4926573;28;20050;-85
2022/08/01 02:19:19;;;;;;;0.40;0.40;;;18.70;99.90;;;;;;4946677;28;20555;-84
2022/08/01 02:21:57;;;;;;;0.30;0.30;;;18.80;99.90;;;;;;4930393;28;20042;-85
2022/08/01 02:24:32;;;;;;;0.30;0.30;;;18.70;99.90;;;;;;4941662;28;20050;-86
2022/08/01 02:27:04;;;;;;;0.35;0.30;;;18.80;99.90;;;;;;4934770;28;20544;-85
2022/08/01 02:29:39;;;;;;;0.30;0.30;;;18.80;99.90;;;;;;4941273;28;20536;-83
2022/08/01 02:32:19;;;;;;;0.30;0.30;;;18.70;99.90;;;;;;4931644;28;20042;-85
2022/08/01 02:34:49;;;;;;;0.30;0.30;;;18.60;99.90;;;;;;4949117;28;20046;-84
2022/08/01 02:37:15;;;;;;;0.30;0.30;;;18.60;99.90;;;;;;4943451;28;20149;-85
2022/08/01 02:39:45;;;;;;;0.50;0.50;;;18.70;99.90;;;;;;4944887;28;20038;-86
2022/08/01 02:42:13;;;;;;;0.30;0.30;;;18.60;99.90;;;;;;4934638;28;20825;-85
2022/08/01 02:44:42;;;;;;;0.30;0.30;;;18.70;99.90;;;;;;4944113;28;20051;-84
2022/08/01 02:47:10;;;;;;;0.30;0.30;;;18.70;99.90;;;;;;4946873;28;20054;-85
2022/08/01 02:49:41;;;;;;;0.30;0.30;;;18.70;99.90;;;;;;4943078;28;20060;-84
2022/08/01 02:52:14;;;;;;;0.30;0.30;;;18.70;99.90;;;;;;4925125;28;20046;-84
2022/08/01 02:54:42;;;;;;;0.30;0.30;;;18.60;99.90;;;;;;4935020;28;20050;-85
2022/08/01 02:57:08;;;;;;;0.35;0.35;;;18.50;99.90;;;;;;4945117;28;20368;-85
2022/08/01 02:59:38;;;;;;;0.30;0.30;;;18.60;99.90;;;;;;4966171;28;20884;-85
2022/08/01 03:02:06;;;;;;;0.40;0.40;;;18.50;99.90;;;;;;4946432;28;20169;-87
2022/08/01 03:04:35;;;;;;;0.30;0.30;;;18.50;99.90;;;;;;4946133;28;20050;-88
2022/08/01 03:07:04;;;;;;;0.40;0.40;;;18.50;99.90;;;;;;4946473;28;20045;-89
2022/08/01 03:09:35;;;;;;;0.30;0.30;;;18.50;99.90;;;;;;4946919;28;20078;-88
2022/08/01 03:12:04;;;;;;;0.30;0.30;;;18.50;99.90;;;;;;4950357;28;20042;-88
2022/08/01 03:14:34;;;;;;;0.30;0.30;;;18.50;99.90;;;;;;4949712;28;20047;-87
2022/08/01 03:17:01;;;;;;;0.30;0.30;;;18.30;99.90;;;;;;4943139;28;20397;-87
2022/08/01 03:19:28;;;;;;;0.30;0.30;;;18.30;99.90;;;;;;4941175;28;20064;-89
2022/08/01 03:21:58;;;;;;;0.30;0.30;;;18.40;99.90;;;;;;4917335;28;20987;-87
2022/08/01 03:24:25;;;;;;;0.30;0.30;;;18.40;99.90;;;;;;4930365;28;20157;-87
2022/08/01 03:26:53;;;;;;;0.30;0.30;;;18.30;99.90;;;;;;4953107;28;20057;-87
2022/08/01 03:29:24;;;;;;;0.32;0.32;;;18.40;99.90;;;;;;4944581;28;20571;-88
2022/08/01 03:31:51;;;;;;;0.30;0.30;;;18.50;99.90;;;;;;4953074;28;20030;-88
2022/08/01 03:34:22;;;;;;;0.30;0.30;;;18.40;99.90;;;;;;4949107;28;20046;-89
2022/08/01 03:37:09;;;;;;;0.30;0.30;;;18.30;99.90;;;;;;4955109;28;20058;-89
2022/08/01 03:39:44;;;;;;;0.30;0.30;;;18.40;99.90;;;;;;4943289;28;20044;-88
2022/08/01 03:42:31;;;;;;;0.30;0.30;;;18.50;99.90;;;;;;4937409;28;20382;-88
2022/08/01 03:45:06;;;;;;;0.30;0.30;;;18.30;99.90;;;;;;4957131;28;20052;-89
2022/08/01 03:47:34;;;;;;;0.30;0.30;;;18.30;99.90;;;;;;4929821;28;20050;-86
2022/08/01 03:50:03;;;;;;;0.30;0.30;;;18.30;99.90;;;;;;4945796;28;20460;-88
2022/08/01 03:52:34;;;;;;;0.30;0.30;;;18.50;99.90;;;;;;4952451;28;20375;-87
2022/08/01 03:55:04;;;;;;;0.30;0.30;;;18.40;99.90;;;;;;4943391;28;20497;-86
2022/08/01 03:57:31;;;;;;;0.30;0.30;;;18.20;99.90;;;;;;4937225;28;20568;-87
2022/08/01 03:59:58;;;;;;;0.30;0.30;;;18.40;99.90;;;;;;4950858;28;20042;-86
2022/08/01 04:02:25;;;;;;;0.30;0.30;;;18.40;99.90;;;;;;4947092;28;20108;-87
2022/08/01 04:04:51;;;;;;;0.30;0.30;;;18.30;99.90;;;;;;4954102;28;20054;-87
2022/08/01 04:07:26;;;;;;;0.40;0.40;;;18.20;99.90;;;;;;4941880;28;20046;-87
2022/08/01 04:09:52;;;;;;;0.30;0.30;;;18.30;99.90;;;;;;4953831;28;20137;-88
2022/08/01 04:12:18;;;;;;;0.40;0.40;;;18.20;99.90;;;;;;4948643;28;20513;-85
2022/08/01 04:14:44;;;;;;;0.30;0.30;;;18.20;99.90;;;;;;4943268;28;20048;-82
2022/08/01 04:17:10;;;;;;;0.30;0.30;;;18.20;99.90;;;;;;4942192;28;20382;-90
2022/08/01 04:19:36;;;;;;;0.30;0.30;;;18.20;99.90;;;;;;4913714;28;20057;-87
2022/08/01 04:22:02;;;;;;;0.30;0.30;;;18.30;99.90;;;;;;4924869;28;20046;-88
2022/08/01 04:24:29;;;;;;;0.30;0.30;;;18.20;99.90;;;;;;4949560;28;20553;-87
2022/08/01 04:27:00;;;;;;;0.30;0.30;;;18.20;99.90;;;;;;4942613;28;20046;-88
2022/08/01 04:29:28;;;;;;;0.30;0.30;;;18.20;99.90;;;;;;4947160;28;20073;-86
2022/08/01 04:31:56;;;;;;;0.30;0.30;;;18.20;99.90;;;;;;4954090;28;20754;-86
2022/08/01 04:34:25;;;;;;;0.30;0.30;;;18.20;99.90;;;;;;4933194;28;20128;-88
2022/08/01 04:36:54;;;;;;;0.30;0.30;;;18.20;99.90;;;;;;4941985;28;20041;-86
2022/08/01 04:39:23;;;;;;;0.30;0.30;;;18.20;99.90;;;;;;4943371;28;20054;-86
2022/08/01 04:41:50;;;;;;;0.30;0.30;;;18.10;99.90;;;;;;4949893;28;20112;-87
2022/08/01 04:44:16;;;;;;;0.30;0.30;;;18.20;99.90;;;;;;4933132;28;20054;-87
2022/08/01 04:46:43;;;;;;;0.30;0.30;;;18.10;99.90;;;;;;4950989;28;20034;-89
2022/08/01 04:49:11;;;;;;;0.38;0.38;;;18.10;99.90;;;;;;4949248;28;20058;-86
2022/08/01 04:51:50;;;;;;;0.30;0.30;;;18.30;99.90;;;;;;4947055;28;20970;-86
2022/08/01 04:54:16;;;;;;;0.30;0.30;;;18.20;99.90;;;;;;4946836;28;20052;-86
2022/08/01 04:56:42;;;;;;;0.30;0.30;;;18.10;99.90;;;;;;4930855;28;20424;-86
2022/08/01 05:01:52;;;;;;;0.30;0.30;;;18.00;99.90;;;;;;4950000;28;20493;-85
2022/08/01 05:04:18;;;;;;;0.30;0.30;;;18.10;99.90;;;;;;4926098;28;20090;-85
2022/08/01 05:06:44;;;;;;;0.30;0.30;;;18.10;99.90;;;;;;4934657;28;20138;-86
2022/08/01 05:09:10;;;;;;;0.30;0.30;;;18.20;99.90;;;;;;4941875;28;20429;-85
2022/08/01 05:11:35;;;;;;;0.30;0.30;;;18.20;99.90;;;;;;4937992;28;20065;-86
2022/08/01 05:14:01;;;;;;;0.30;0.30;;;18.10;99.90;;;;;;4943432;28;20054;-85
2022/08/01 05:16:27;;;;;;;0.30;0.30;;;18.10;99.90;;;;;;4942810;28;20104;-86
2022/08/01 05:18:53;;;;;;;0.30;0.30;;;18.40;99.90;;;;;;4945206;28;20046;-85
2022/08/01 05:21:18;;;;;;;0.40;0.40;;;18.50;99.90;;;;;;4939555;28;20848;-85
2022/08/01 05:23:44;;;;;;;0.30;0.30;;;18.80;99.90;;;;;;4931365;28;20053;-85
2022/08/01 05:26:11;;;;;;;0.30;0.30;;;18.50;99.90;;;;;;4946224;28;20101;-85
2022/08/01 05:28:36;;;;;;;0.30;0.30;;;18.50;99.90;;;;;;4937538;28;20061;-85
2022/08/01 05:31:03;;;;;;;0.30;0.30;;;18.40;99.90;;;;;;4945271;28;20049;-84
2022/08/01 05:33:29;;;;;;;0.30;0.30;;;18.40;99.90;;;;;;4945024;28;20997;-84
2022/08/01 05:35:55;;;;;;;0.30;0.30;;;18.40;99.90;;;;;;4942008;28;20081;-84
2022/08/01 05:38:20;;;;;;;0.35;0.35;;;18.20;99.90;;;;;;4949519;28;20100;-85
2022/08/01 05:40:46;;;;;;;0.30;0.30;;;18.40;99.90;;;;;;4938420;28;20120;-85
2022/08/01 05:43:12;;;;;;;0.40;0.40;;;18.50;99.90;;;;;;4941283;28;20156;-84
2022/08/01 05:45:38;;;;;;;0.35;0.35;;;18.30;99.90;;;;;;4937382;28;20042;-85
2022/08/01 05:48:04;;;;;;;0.30;0.30;;;18.50;99.90;;;;;;4943907;28;20085;-85
2022/08/01 05:50:30;;;;;;;0.30;0.30;;;18.40;99.90;;;;;;4940579;28;20058;-85
2022/08/01 05:52:55;;;;;;;0.30;0.30;;;18.40;99.90;;;;;;4942553;28;20133;-85
2022/08/01 05:55:21;;;;;;;0.40;0.40;;;18.40;99.90;;;;;;4945690;28;20523;-84
2022/08/01 05:57:47;;;;;;;0.40;0.40;;;18.40;99.90;;;;;;4946291;28;20046;-84
2022/08/01 06:00:14;;;;;;;0.30;0.30;;;18.30;99.90;;;;;;4947789;28;20092;-84
2022/08/01 06:02:42;;;;;;;0.30;0.30;;;18.30;99.90;;;;;;4949282;28;20117;-84
2022/08/01 06:05:08;;;;;;;0.40;0.40;;;18.30;99.90;;;;;;4931638;28;20045;-85
2022/08/01 06:07:34;;;;;;;0.30;0.30;;;18.30;99.90;;;;;;4932378;28;20704;-84
2022/08/01 06:10:00;;;;;;;0.30;0.30;;;18.20;99.90;;;;;;4941471;28;20161;-84
2022/08/01 06:12:25;;;;;;;0.30;0.30;;;18.30;99.90;;;;;;4938001;28;20053;-83
2022/08/01 06:14:51;;;;;;;0.30;0.30;;;18.30;99.90;;;;;;4961175;28;20277;-83
2022/08/01 06:17:18;;;;;;;0.30;0.30;;;18.30;99.90;;;;;;4950537;28;20597;-86
2022/08/01 06:19:44;;;;;;;0.30;0.30;;;18.30;99.90;;;;;;4944579;28;20042;-83
2022/08/01 06:22:10;;;;;;;0.30;0.30;;;18.40;99.90;;;;;;4944476;28;20128;-84
2022/08/01 06:24:35;;;;;;;0.30;0.30;;;18.40;99.90;;;;;;4931859;28;20123;-83
2022/08/01 06:27:02;;;;;;;0.30;0.30;;;18.40;99.90;;;;;;4948944;28;20054;-83
2022/08/01 06:29:31;;;;;;;0.30;0.30;;;18.30;99.90;;;;;;4934985;28;20076;-84
2022/08/01 06:31:56;;;;;;;0.30;0.30;;;18.30;99.90;;;;;;4936530;28;20053;-86
2022/08/01 06:34:22;;;;;;;0.30;0.30;;;18.50;99.90;;;;;;4956228;28;20052;-85
2022/08/01 06:36:48;;;;;;;0.30;0.30;;;18.70;99.90;;;;;;4919435;28;20058;-84
2022/08/01 06:39:14;;;;;;;0.30;0.30;;;18.80;99.90;;;;;;4934598;28;20923;-84
2022/08/01 06:41:41;;;;;;;0.30;0.30;;;18.90;99.90;;;;;;4956979;28;20690;-84
2022/08/01 06:44:07;;;;;;;0.30;0.30;;;19.00;99.90;;;;;;4934372;28;20113;-82
2022/08/01 06:46:34;;;;;;;0.30;0.30;;;19.30;99.90;;;;;;4956053;28;20672;-84
2022/08/01 06:49:00;;;;;;;0.30;0.30;;;19.40;99.90;;;;;;4954739;28;20053;-84
2022/08/01 06:51:26;;;;;;;0.30;0.30;;;19.80;99.90;;;;;;4930950;28;20058;-85
2022/08/01 06:53:53;;;;;;;0.30;0.30;;;19.60;99.90;;;;;;4916396;28;20057;-86
2022/08/01 06:56:19;;;;;;;0.30;0.30;;;19.90;99.90;;;;;;4949513;28;20613;-85
2022/08/01 06:58:45;;;;;;;0.30;0.30;;;19.60;99.90;;;;;;4914104;28;20062;-84
2022/08/01 07:01:10;;;;;;;0.30;0.30;;;19.80;99.90;;;;;;4927814;28;20113;-83
2022/08/01 07:03:37;;;;;;;0.30;0.30;;;19.70;99.90;;;;;;4917082;28;20043;-83
2022/08/01 07:06:03;;;;;;;0.30;0.30;;;19.50;99.90;;;;;;4930152;28;20053;-83
2022/08/01 07:08:29;;;;;;;0.30;0.30;;;19.30;99.90;;;;;;4929458;28;20051;-83
2022/08/01 07:10:58;;;;;;;0.30;0.30;;;19.40;99.90;;;;;;4948738;28;20055;-81
2022/08/01 07:13:26;;;;;;;0.30;0.30;;;19.50;99.90;;;;;;4933282;28;20047;-83
2022/08/01 07:15:52;;;;;;;0.30;0.30;;;19.70;99.90;;;;;;4912487;28;20047;-83
2022/08/01 07:18:18;;;;;;;0.30;0.30;;;19.50;99.90;;;;;;4932828;28;20139;-84
2022/08/01 07:20:47;;;;;;;0.30;0.30;;;19.50;99.90;;;;;;4924423;28;20063;-84
2022/08/01 07:23:13;;;;;;;0.30;0.30;;;19.30;99.90;;;;;;4915565;28;20046;-83
2022/08/01 07:25:39;;;;;;;0.30;0.30;;;19.30;99.90;;;;;;4928209;28;20078;-83
2022/08/01 07:28:05;;;;;;;0.30;0.30;;;19.20;99.90;;;;;;4936221;28;20047;-82
2022/08/01 07:30:31;;;;;;;0.30;0.30;;;19.40;99.90;;;;;;4927644;28;20054;-82
2022/08/01 07:32:57;;;;;;;0.30;0.30;;;19.40;99.90;;;;;;4932654;28;20043;-83
2022/08/01 07:35:23;;;;;;;0.30;0.30;;;19.50;99.90;;;;;;4928483;28;20149;-80
2022/08/01 07:37:48;;;;;;;0.30;0.30;;;19.70;99.90;;;;;;4933161;28;20065;-81
2022/08/01 07:40:15;;;;;;;0.40;0.40;;;19.80;99.90;;;;;;4933955;28;20473;-81
2022/08/01 07:42:43;;;;;;;0.40;0.40;;;19.60;99.90;;;;;;4927550;28;20051;-81
2022/08/01 07:45:10;;;;;;;0.30;0.30;;;19.70;99.90;;;;;;4933470;28;20078;-82
2022/08/01 07:47:35;;;;;;;0.30;0.30;;;19.80;99.90;;;;;;4929147;28;21011;-81
2022/08/01 07:50:03;;;;;;;0.30;0.30;;;19.70;99.90;;;;;;4945264;28;20078;-80
2022/08/01 07:52:30;;;;;;;0.30;0.30;;;20.10;99.90;;;;;;4956094;28;22105;-82
2022/08/01 07:54:56;;;;;;;0.30;0.30;;;20.20;99.90;;;;;;4954948;28;20887;-82
2022/08/01 07:57:23;;;;;;;0.30;0.30;;;20.00;99.90;;;;;;4952972;28;20046;-82
2022/08/01 07:59:49;;;;;;;0.30;0.30;;;20.20;99.90;;;;;;4954049;28;20057;-82
2022/08/01 08:02:15;;;;;;;0.30;0.30;;;19.90;99.90;;;;;;4940604;28;20050;-82
2022/08/01 08:04:41;;;;;;;0.30;0.30;;;20.30;99.90;;;;;;4939847;28;20064;-82
2022/08/01 08:07:06;;;;;;;0.30;0.30;;;20.40;99.90;;;;;;4951683;28;20505;-82
2022/08/01 08:09:32;;;;;;;0.40;0.40;;;20.20;99.90;;;;;;4966612;28;20064;-82
2022/08/01 08:11:58;;;;;;;0.30;0.30;;;20.30;99.90;;;;;;4952789;28;20699;-81
2022/08/01 08:14:24;;;;;;;0.30;0.30;;;20.40;99.90;;;;;;4958953;28;20086;-81
2022/08/01 08:16:51;;;;;;;0.30;0.30;;;20.70;99.90;;;;;;4940636;28;20058;-82
2022/08/01 08:19:18;;;;;;;0.30;0.30;;;20.30;99.90;;;;;;4949963;28;20104;-80
2022/08/01 08:21:43;;;;;;;0.30;0.30;;;20.60;99.90;;;;;;4958767;28;20060;-81
2022/08/01 08:24:23;;;;;;;0.30;0.30;;;20.50;99.90;;;;;;4949853;28;20058;-81
2022/08/01 08:26:55;;;;;;;0.22;0.22;;;20.50;99.90;;;;;;4952767;28;20054;-81
2022/08/01 08:29:22;;;;;;;0.30;0.30;;;20.60;99.90;;;;;;4953491;28;20057;-82
2022/08/01 08:31:48;;;;;;;0.30;0.30;;;20.30;99.90;;;;;;4950593;28;20226;-82
2022/08/01 08:34:15;;;;;;;0.30;0.30;;;20.50;99.90;;;;;;4956264;28;20135;-81
2022/08/01 08:36:40;;;;;;;0.30;0.30;;;20.20;99.90;;;;;;4949652;28;20221;-82
2022/08/01 08:39:06;;;;;;;0.30;0.30;;;20.10;99.90;;;;;;4951408;28;20045;-82
2022/08/01 08:41:33;;;;;;;0.30;0.30;;;20.30;99.90;;;;;;4952425;28;20312;-83
2022/08/01 08:44:01;;;;;;;0.30;0.30;;;20.30;99.90;;;;;;4955027;28;20060;-81
2022/08/01 08:46:28;;;;;;;0.30;0.30;;;20.10;99.90;;;;;;4953225;28;20049;-81
2022/08/01 08:48:55;;;;;;;0.30;0.30;;;20.40;99.90;;;;;;4957238;28;20153;-81
2022/08/01 08:51:25;;;;;;;0.30;0.30;;;20.50;99.90;;;;;;4949813;28;20205;-81
2022/08/01 08:53:54;;;;;;;0.30;0.30;;;20.40;99.90;;;;;;4950005;28;21216;-81
2022/08/01 08:56:20;;;;;;;0.30;0.30;;;20.40;99.90;;;;;;4948028;28;20050;-82
2022/08/01 08:58:47;;;;;;;0.30;0.30;;;20.40;99.90;;;;;;4953097;28;20050;-81
2022/08/01 09:01:13;;;;;;;0.30;0.30;;;20.40;99.90;;;;;;4954556;28;20062;-80
2022/08/01 09:03:40;;;;;;;0.30;0.30;;;20.60;99.90;;;;;;4970122;28;20042;-82
2022/08/01 09:06:06;;;;;;;0.30;0.30;;;20.40;99.90;;;;;;4951585;28;20050;-80
2022/08/01 09:08:33;;;;;;;0.30;0.30;;;20.70;99.90;;;;;;4958720;28;20037;-79
2022/08/01 09:10:59;;;;;;;0.30;0.30;;;20.80;99.90;;;;;;4967557;28;20046;-81
2022/08/01 09:13:25;;;;;;;0.30;0.30;;;20.70;99.90;;;;;;4950075;28;20046;-81
2022/08/01 09:15:58;;;;;;;0.30;0.30;;;20.80;99.90;;;;;;4950662;28;20050;-80
2022/08/01 09:18:40;;;;;;;0.30;0.30;;;21.20;99.90;;;;;;4951409;28;20417;-84
2022/08/01 09:21:05;;;;;;;0.30;0.30;;;21.40;99.90;;;;;;4954843;28;20058;-80
2022/08/01 09:23:33;;;;;;;0.30;0.30;;;21.50;99.90;;;;;;4938072;28;20461;-79
2022/08/01 09:25:59;;;;;;;0.30;0.30;;;21.50;99.90;;;;;;4968230;28;20116;-80
2022/08/01 09:28:29;;;;;;;0.30;0.30;;;21.90;99.90;;;;;;4951027;28;20050;-80
2022/08/01 09:31:05;;;;;;;0.30;0.30;;;21.60;99.90;;;;;;4958397;28;20489;-81
2022/08/01 09:34:04;;;;;;;0.30;0.30;;;21.80;99.90;;;;;;4967612;28;23064;-81
2022/08/01 09:36:56;;;;;;;0.30;0.30;;;22.10;99.90;;;;;;4971557;28;20738;-81
2022/08/01 09:39:28;;;;;;;0.30;0.30;;;22.20;99.90;;;;;;4973417;28;20058;-80
2022/08/01 09:42:00;;;;;;;0.30;0.30;;;22.10;99.90;;;;;;4953141;28;20058;-80
2022/08/01 09:44:43;;;;;;;0.30;0.30;;;22.10;99.90;;;;;;4949670;28;20272;-80
2022/08/01 09:47:10;;;;;;;0.30;0.30;;;22.10;99.90;;;;;;4969141;28;20065;-80
2022/08/01 09:49:37;;;;;;;0.30;0.30;;;22.20;99.90;;;;;;4970295;28;20850;-80
2022/08/01 09:52:18;;;;;;;0.30;0.30;;;21.90;99.90;;;;;;4955068;28;20081;-80
2022/08/01 09:54:55;;;;;;;0.30;0.30;;;22.00;99.90;;;;;;4951978;28;20077;-80
2022/08/01 09:57:22;;;;;;;0.30;0.30;;;22.10;99.90;;;;;;4964384;28;20082;-80
2022/08/01 09:59:52;;;;;;;0.30;0.30;;;21.70;99.90;;;;;;4955495;28;20049;-81
2022/08/01 10:02:36;;;;;;;0.30;0.30;;;22.10;99.90;;;;;;4946553;28;20046;-79
2022/08/01 10:05:08;;;;;;;0.32;0.32;;;21.80;99.90;;;;;;4971971;28;20084;-79
2022/08/01 10:07:34;;;;;;;0.30;0.30;;;22.00;99.90;;;;;;4950292;28;20606;-81
2022/08/01 10:10:13;;;;;;;0.30;0.30;;;22.00;99.90;;;;;;4973691;28;20149;-81
2022/08/01 10:12:40;;;;;;;0.30;0.30;;;22.60;99.90;;;;;;4956994;28;20060;-82
2022/08/01 10:15:07;;;;;;;0.30;0.30;;;22.80;99.90;;;;;;4956397;28;20061;-80
2022/08/01 10:17:34;;;;;;;0.30;0.30;;;23.00;99.90;;;;;;4946766;28;20058;-80
2022/08/01 10:20:02;;;;;;;0.30;0.30;;;22.70;99.90;;;;;;4950567;28;20559;-81
2022/08/01 10:22:31;;;;;;;0.30;0.30;;;22.80;99.90;;;;;;4945133;28;20053;-82
2022/08/01 10:25:02;;;;;;;0.30;0.30;;;22.50;99.90;;;;;;4960808;28;20042;-81
2022/08/01 10:27:32;;;;;;;0.30;0.30;;;22.60;99.90;;;;;;4949328;28;20058;-81
2022/08/01 10:30:07;;;;;;;0.30;0.30;;;22.80;99.90;;;;;;4961674;28;20056;-81
2022/08/01 10:32:34;;;;;;;0.30;0.30;;;22.70;99.90;;;;;;4945166;28;20111;-80
2022/08/01 10:35:03;;;;;;;0.30;0.30;;;23.00;99.90;;;;;;4947326;28;20057;-80
2022/08/01 10:37:29;;;;;;;0.30;0.30;;;22.60;99.90;;;;;;4957353;28;20057;-81
2022/08/01 10:39:56;;;;;;;0.30;0.30;;;22.40;99.90;;;;;;4934411;28;20132;-81
2022/08/01 10:42:22;;;;;;;0.30;0.30;;;22.10;99.90;;;;;;4940697;28;20054;-81
2022/08/01 10:44:49;;;;;;;0.30;0.30;;;21.90;99.90;;;;;;4933904;28;20303;-82
2022/08/01 10:47:24;;;;;;;0.30;0.30;;;22.40;99.90;;;;;;4947184;28;20651;-80
2022/08/01 10:49:56;;;;;;;0.30;0.30;;;22.50;99.90;;;;;;4929007;28;21489;-80
2022/08/01 10:52:22;;;;;;;0.20;0.20;;;22.60;99.90;;;;;;4934814;28;20152;-81
2022/08/01 10:54:48;;;;;;;0.30;0.30;;;22.50;99.90;;;;;;4940959;28;20064;-80
2022/08/01 10:57:14;;;;;;;0.25;0.25;;;22.70;99.90;;;;;;4926684;28;20634;-81
2022/08/01 10:59:51;;;;;;;0.30;0.30;;;23.30;99.90;;;;;;4945304;28;20060;-80
2022/08/01 11:02:27;;;;;;;0.30;0.30;;;23.40;99.90;;;;;;4936152;28;20104;-81
2022/08/01 11:05:06;;;;;;;0.30;0.30;;;23.00;99.90;;;;;;4941759;28;20069;-81
2022/08/01 11:07:52;;;;;;;0.20;0.20;;;22.50;99.90;;;;;;4949943;28;20139;-81
2022/08/01 11:10:55;;;;;;;0.25;0.25;;;22.90;99.90;;;;;;4952889;28;20060;-81
2022/08/01 11:14:06;;;;;;;0.30;0.30;;;22.60;99.90;;;;;;4951097;28;20633;-80
2022/08/01 11:16:34;;;;;;;0.20;0.20;;;22.70;99.90;;;;;;4971734;28;20050;-81
2022/08/01 11:19:00;;;;;;;0.30;0.30;;;22.70;99.90;;;;;;4956711;28;20081;-81
2022/08/01 11:21:54;;;;;;;0.20;0.20;;;22.80;99.90;;;;;;4940237;28;20133;-80
2022/08/01 11:24:45;;;;;;;0.20;0.20;;;23.30;99.90;;;;;;4955930;28;20078;-80
2022/08/01 11:27:22;;;;;;;0.22;0.22;;;23.50;99.90;;;;;;4964625;28;20696;-81
2022/08/01 11:30:08;;;;;;;0.30;0.30;;;23.60;99.90;;;;;;4970518;28;20929;-81
2022/08/01 11:32:55;;;;;;;0.20;0.20;;;23.40;99.90;;;;;;4953480;28;20518;-81
2022/08/01 11:35:29;;;;;;;0.25;0.25;;;23.40;99.90;;;;;;4959346;28;20068;-81
2022/08/01 11:37:56;;;;;;;0.20;0.20;;;23.10;99.90;;;;;;4939012;28;20132;-82
2022/08/01 11:40:26;;;;;;;0.30;0.30;;;23.20;99.90;;;;;;4947441;28;20062;-81
2022/08/01 11:43:14;;;;;;;0.30;0.30;;;22.90;99.90;;;;;;4950285;28;21514;-81
2022/08/01 11:45:57;;;;;;;0.20;0.20;;;22.90;99.90;;;;;;4944897;28;20039;-83
2022/08/01 11:48:25;;;;;;;0.30;0.30;;;22.80;99.90;;;;;;4957244;28;20056;-81
2022/08/01 11:50:56;;;;;;;0.30;0.30;;;23.00;99.90;;;;;;4966185;28;20545;-81
2022/08/01 11:53:22;;;;;;;0.25;0.25;;;23.60;99.90;;;;;;4954673;28;20088;-81
2022/08/01 11:55:53;;;;;;;0.30;0.30;;;23.60;99.90;;;;;;4954055;28;20090;-81
2022/08/01 11:58:26;;;;;;;0.30;0.30;;;23.60;99.90;;;;;;4944778;28;20052;-80
2022/08/01 12:00:57;;;;;;;0.30;0.30;;;23.10;99.90;;;;;;4950392;28;22314;-80
2022/08/01 12:03:31;;;;;;;0.30;0.30;;;22.90;99.90;;;;;;4967226;28;20053;-80
2022/08/01 12:05:58;;;;;;;0.25;0.25;;;22.70;99.90;;;;;;4963184;28;20053;-81
2022/08/01 12:08:36;;;;;;;0.30;0.30;;;22.60;99.90;;;;;;4973026;28;20124;-82
2022/08/01 12:11:04;;;;;;;0.30;0.30;;;22.70;99.90;;;;;;4948426;28;20046;-79
2022/08/01 12:13:43;;;;;;;0.20;0.20;;;22.80;99.90;;;;;;4956017;28;20094;-81
2022/08/01 12:16:10;;;;;;;0.28;0.28;;;23.10;99.90;;;;;;4963063;28;20322;-80
2022/08/01 12:18:41;;;;;;;0.30;0.30;;;22.90;99.90;;;;;;4946187;28;20053;-81
2022/08/01 12:21:06;;;;;;;0.30;0.30;;;23.30;99.90;;;;;;4945025;28;20140;-81
2022/08/01 12:23:32;;;;;;;0.30;0.30;;;23.50;99.90;;;;;;4943138;28;20068;-82
2022/08/01 12:25:59;;;;;;;0.30;0.30;;;23.90;99.90;;;;;;4933155;28;20088;-79
2022/08/01 12:28:25;;;;;;;0.30;0.30;;;23.90;99.90;;;;;;4934802;28;20350;-79
2022/08/01 12:30:51;;;;;;;0.30;0.30;;;23.80;99.90;;;;;;4937879;28;20396;-81
2022/08/01 12:33:19;;;;;;;0.20;0.20;;;23.70;99.90;;;;;;4937138;28;20050;-81
2022/08/01 12:35:45;;;;;;;0.20;0.20;;;24.00;99.90;;;;;;4935895;28;20061;-81
2022/08/01 12:38:16;;;;;;;0.20;0.20;;;23.60;99.90;;;;;;4905026;28;20076;-80
2022/08/01 12:40:44;;;;;;;0.30;0.30;;;23.50;99.90;;;;;;4950642;28;20058;-81
2022/08/01 12:43:15;;;;;;;0.25;0.25;;;23.70;99.90;;;;;;4954756;28;20709;-80
2022/08/01 12:45:43;;;;;;;0.30;0.30;;;23.40;99.90;;;;;;4952884;28;20129;-80
2022/08/01 12:48:14;;;;;;;0.30;0.30;;;23.90;99.90;;;;;;4951202;28;20079;-78
2022/08/01 12:50:42;;;;;;;0.30;0.30;;;24.10;99.90;;;;;;4934788;28;20966;-78
2022/08/01 12:53:09;;;;;;;0.30;0.30;;;24.10;99.90;;;;;;4945728;28;20069;-80
2022/08/01 12:55:49;;;;;;;0.20;0.20;;;24.30;99.90;;;;;;4968264;28;20046;-81
2022/08/01 12:58:16;;;;;;;0.30;0.30;;;24.40;99.90;;;;;;4949849;28;20050;-81
2022/08/01 13:00:45;;;;;;;0.20;0.20;;;24.30;99.90;;;;;;4953338;28;20065;-82
2022/08/01 13:03:16;;;;;;;0.30;0.30;;;24.40;99.90;;;;;;4941245;28;20050;-81